Time;durP1;ratioP1;P1;durP2;ratioP2;P2;SDS_P1;SDS_P2;PMS_P1;PMS_P2;Temp;Humidity;BMP_temperature;BMP_pressure;BME280_temperature;BME280_humidity;BME280_pressure;Samples;Min_cycle;Max_cycle;Signal;HPM_P1;HPM_P2
2022/07/28 00:00:40;;;;;;;11.43;2.22;;;;;;;14.61;44.60;101329.28;5031219;28;20461;-70
2022/07/28 00:03:07;;;;;;;11.77;2.65;;;;;;;14.49;44.89;101322.53;5031208;28;20516;-69
2022/07/28 00:05:33;;;;;;;7.85;2.50;;;;;;;14.53;44.74;101318.47;5031725;28;20056;-68
2022/07/28 00:08:00;;;;;;;10.90;2.38;;;;;;;14.52;44.68;101328.44;5032032;28;20128;-70
2022/07/28 00:10:26;;;;;;;10.00;2.13;;;;;;;14.47;44.48;101325.41;5031428;28;20049;-70
2022/07/28 00:12:53;;;;;;;10.48;2.10;;;;;;;14.44;44.85;101330.31;5031035;28;20084;-69
2022/07/28 00:15:19;;;;;;;11.13;2.45;;;;;;;14.44;44.86;101324.91;5031816;28;20457;-69
2022/07/28 00:17:46;;;;;;;10.27;2.10;;;;;;;14.38;44.89;101336.38;5031987;28;20045;-69
2022/07/28 00:20:13;;;;;;;9.63;2.35;;;;;;;14.41;44.89;101325.25;5030218;28;20103;-68
2022/07/28 00:22:43;;;;;;;5.13;1.80;;;;;;;14.33;45.10;101325.28;5022477;28;20541;-68
2022/07/28 00:25:10;;;;;;;10.07;2.08;;;;;;;14.28;45.25;101337.38;5045600;28;20061;-68
2022/07/28 00:27:37;;;;;;;8.50;1.80;;;;;;;14.20;45.38;101318.50;5031402;28;20046;-69
2022/07/28 00:30:05;;;;;;;5.93;2.00;;;;;;;14.16;45.54;101327.13;5030170;28;20128;-69
2022/07/28 00:32:32;;;;;;;14.90;2.05;;;;;;;14.15;45.75;101337.09;5032123;28;20045;-69
2022/07/28 00:34:59;;;;;;;7.50;2.00;;;;;;;14.11;45.64;101333.00;5031891;28;20044;-70
2022/07/28 00:37:28;;;;;;;5.38;1.92;;;;;;;14.03;45.84;101328.47;5030098;28;20148;-68
2022/07/28 00:39:55;;;;;;;9.57;1.95;;;;;;;14.14;45.68;101329.16;5030173;28;20505;-68
2022/07/28 00:42:21;;;;;;;6.13;1.80;;;;;;;14.14;45.81;101329.97;5030221;28;20053;-69
2022/07/28 00:44:48;;;;;;;8.65;2.00;;;;;;;14.12;45.88;101329.31;5030040;28;20041;-69
2022/07/28 00:47:15;;;;;;;6.63;1.77;;;;;;;14.05;46.03;101331.00;5030609;28;20137;-70
2022/07/28 00:49:43;;;;;;;8.02;1.83;;;;;;;13.97;46.14;101331.81;5030139;28;20064;-69
2022/07/28 00:52:11;;;;;;;9.25;2.33;;;;;;;14.02;46.06;101331.34;5031072;28;20124;-68
2022/07/28 00:54:38;;;;;;;11.30;2.25;;;;;;;14.01;46.01;101329.63;5029968;28;20060;-69
2022/07/28 00:57:04;;;;;;;7.10;1.83;;;;;;;13.98;46.25;101328.13;5030118;28;20504;-68
2022/07/28 00:59:31;;;;;;;5.70;1.25;;;;;;;14.00;46.25;101323.41;5031930;28;20121;-68
2022/07/28 01:02:00;;;;;;;10.00;1.70;;;;;;;14.02;46.21;101326.78;5031531;28;20159;-70
2022/07/28 01:04:28;;;;;;;7.93;2.40;;;;;;;13.99;46.71;101331.69;5032211;28;20041;-70
2022/07/28 01:07:13;;;;;;;11.27;1.67;;;;;;;14.00;46.32;101325.25;5031787;28;20140;-69
2022/07/28 01:10:00;;;;;;;10.13;1.63;;;;;;;14.02;46.03;101331.34;5033632;28;20045;-69
2022/07/28 01:12:36;;;;;;;10.73;2.22;;;;;;;13.98;46.45;101335.41;5030930;28;20136;-70
2022/07/28 01:15:20;;;;;;;9.48;1.98;;;;;;;13.99;46.51;101337.06;5032363;28;20057;-69
2022/07/28 01:17:59;;;;;;;7.43;2.05;;;;;;;14.00;46.59;101336.88;5031977;28;20091;-69
2022/07/28 01:20:41;;;;;;;6.97;1.88;;;;;;;13.99;46.50;101337.06;5030938;28;20498;-69
2022/07/28 01:23:10;;;;;;;7.03;2.05;;;;;;;13.91;46.83;101329.81;5031007;28;20048;-69
2022/07/28 01:25:59;;;;;;;14.18;1.90;;;;;;;13.90;47.14;101333.50;5029682;28;20045;-69
2022/07/28 01:28:28;;;;;;;8.88;2.47;;;;;;;13.93;46.87;101326.94;5030635;28;20482;-70
2022/07/28 01:31:03;;;;;;;12.88;1.92;;;;;;;13.92;46.82;101330.66;5030311;28;20041;-70
2022/07/28 01:33:35;;;;;;;7.57;1.80;;;;;;;13.85;47.44;101335.88;5023913;28;20124;-70
2022/07/28 01:36:09;;;;;;;6.88;1.88;;;;;;;13.82;47.49;101341.59;5031055;28;20049;-70
2022/07/28 01:38:38;;;;;;;7.82;1.77;;;;;;;13.81;47.45;101331.84;5031123;28;20050;-69
2022/07/28 01:41:08;;;;;;;6.68;1.60;;;;;;;13.82;47.44;101337.03;5030745;28;20144;-69
2022/07/28 01:43:39;;;;;;;8.10;1.70;;;;;;;13.77;47.50;101336.72;5031714;28;20501;-69
2022/07/28 01:46:05;;;;;;;5.38;1.48;;;;;;;13.86;47.77;101337.56;5030425;28;20057;-70
2022/07/28 01:48:34;;;;;;;5.88;1.73;;;;;;;13.82;47.97;101342.44;5031160;28;20096;-69
2022/07/28 01:51:03;;;;;;;10.93;2.05;;;;;;;13.82;48.15;101347.84;5031420;28;20125;-69
2022/07/28 01:53:31;;;;;;;7.78;2.05;;;;;;;13.80;48.06;101339.09;5030681;28;20046;-69
2022/07/28 01:56:04;;;;;;;8.95;1.85;;;;;;;13.78;48.17;101335.69;5030358;28;20095;-69
2022/07/28 01:58:32;;;;;;;9.27;2.00;;;;;;;13.79;48.26;101331.16;5031192;28;20065;-69
2022/07/28 02:01:02;;;;;;;9.48;1.73;;;;;;;13.68;48.51;101331.44;5030807;28;20129;-69
2022/07/28 02:03:30;;;;;;;8.18;2.00;;;;;;;13.68;48.73;101332.28;5030567;28;20140;-69
2022/07/28 02:06:01;;;;;;;9.18;2.40;;;;;;;13.67;48.64;101329.75;5030444;28;20048;-69
2022/07/28 02:08:31;;;;;;;5.43;1.35;;;;;;;13.67;48.71;101336.00;5032110;28;20054;-69
2022/07/28 02:13:46;;;;;;;5.40;1.58;;;;;;;13.57;49.05;101327.22;5034909;28;20057;-69
2022/07/28 02:16:16;;;;;;;7.85;1.95;;;;;;;13.54;49.19;101330.22;5033435;28;20554;-69
2022/07/28 02:18:44;;;;;;;11.00;2.20;;;;;;;13.48;49.48;101330.88;5033509;28;20049;-69
2022/07/28 02:21:13;;;;;;;8.93;1.80;;;;;;;13.44;49.61;101329.53;5031521;28;20064;-69
2022/07/28 02:23:44;;;;;;;7.78;2.10;;;;;;;13.38;49.72;101332.88;5032605;28;20469;-69
2022/07/28 02:26:12;;;;;;;9.10;2.03;;;;;;;13.39;49.74;101326.47;5033972;28;20080;-69
2022/07/28 02:28:45;;;;;;;8.90;2.13;;;;;;;13.35;49.92;101332.22;5033687;28;20136;-69
2022/07/28 02:31:18;;;;;;;9.43;2.13;;;;;;;13.30;50.17;101334.53;5033833;28;20053;-69
2022/07/28 02:33:47;;;;;;;6.28;1.90;;;;;;;13.30;50.39;101337.22;5033132;28;20045;-69
2022/07/28 02:36:32;;;;;;;10.30;1.80;;;;;;;13.30;50.46;101336.38;5033168;28;20056;-68
2022/07/28 02:39:11;;;;;;;6.68;1.90;;;;;;;13.27;50.57;101348.31;5033831;28;20065;-68
2022/07/28 02:41:40;;;;;;;7.07;2.90;;;;;;;13.21;50.72;101335.50;5032859;28;20053;-68
2022/07/28 02:44:16;;;;;;;12.52;2.72;;;;;;;13.20;51.07;101346.44;5031515;28;20463;-68
2022/07/28 02:46:46;;;;;;;7.60;3.28;;;;;;;13.18;50.74;101351.16;5033226;28;20485;-69
2022/07/28 02:49:19;;;;;;;10.23;3.15;;;;;;;13.12;50.94;101344.56;5032510;28;20095;-68
2022/07/28 02:51:49;;;;;;;10.05;2.30;;;;;;;13.10;50.91;101346.56;5033307;28;20045;-68
2022/07/28 02:54:18;;;;;;;10.38;2.75;;;;;;;13.13;51.09;101346.25;5032635;28;20145;-68
2022/07/28 02:56:47;;;;;;;10.20;2.25;;;;;;;13.08;51.08;101343.22;5032880;28;20141;-68
2022/07/28 02:59:20;;;;;;;9.23;2.28;;;;;;;13.05;51.14;101351.63;5032804;28;20440;-68
2022/07/28 03:01:47;;;;;;;11.40;2.08;;;;;;;13.05;51.53;101354.31;5032467;28;20050;-68
2022/07/28 03:04:15;;;;;;;7.88;2.30;;;;;;;13.03;51.41;101354.44;5033507;28;20094;-68
2022/07/28 03:06:43;;;;;;;8.57;1.77;;;;;;;13.00;51.43;101357.47;5032856;28;20045;-68
2022/07/28 03:09:10;;;;;;;8.57;2.53;;;;;;;13.00;51.59;101353.94;5032622;28;20137;-69
2022/07/28 03:11:53;;;;;;;11.48;2.40;;;;;;;12.95;51.52;101354.44;5032787;28;20045;-69
2022/07/28 03:14:20;;;;;;;9.25;2.35;;;;;;;12.89;51.76;101355.06;5033024;28;20167;-69
2022/07/28 03:16:46;;;;;;;15.18;2.45;;;;;;;12.86;52.00;101361.59;5031838;28;20071;-69
2022/07/28 03:19:20;;;;;;;7.65;1.95;;;;;;;12.90;51.87;101363.97;5031869;28;20063;-69
2022/07/28 03:21:48;;;;;;;9.73;2.45;;;;;;;12.82;51.94;101370.16;5032199;28;20045;-69
2022/07/28 03:24:17;;;;;;;10.95;2.22;;;;;;;12.84;51.95;101366.31;5031681;28;20057;-69
2022/07/28 03:26:51;;;;;;;9.57;2.03;;;;;;;12.89;51.78;101373.91;5033415;28;20144;-69
2022/07/28 03:29:18;;;;;;;5.38;2.22;;;;;;;12.87;51.98;101379.47;5031995;28;20140;-69
2022/07/28 03:31:46;;;;;;;8.25;2.70;;;;;;;12.82;52.24;101379.09;5021269;28;20441;-69
2022/07/28 03:34:14;;;;;;;7.43;2.50;;;;;;;12.86;51.99;101383.13;5013125;28;20459;-69
2022/07/28 03:36:46;;;;;;;18.02;2.40;;;;;;;12.85;52.28;101383.31;5012122;28;20052;-69
2022/07/28 03:39:15;;;;;;;13.00;3.10;;;;;;;12.84;52.17;101376.25;5012522;28;20113;-69
2022/07/28 03:41:42;;;;;;;23.52;11.05;;;;;;;12.85;52.20;101384.16;5012065;28;20102;-69
2022/07/28 03:44:11;;;;;;;13.85;4.78;;;;;;;12.86;52.37;101385.00;5011841;28;20133;-69
2022/07/28 03:46:44;;;;;;;6.40;2.30;;;;;;;12.93;52.04;101375.28;5012056;28;20402;-69
2022/07/28 03:49:11;;;;;;;10.02;2.30;;;;;;;12.97;51.96;101378.50;5012574;28;20133;-68
2022/07/28 03:51:38;;;;;;;13.05;2.88;;;;;;;12.91;52.10;101379.16;5012495;28;20538;-70
2022/07/28 03:54:05;;;;;;;8.18;2.63;;;;;;;12.91;52.62;101379.16;5012079;28;20044;-70
2022/07/28 03:56:31;;;;;;;12.35;2.67;;;;;;;12.93;52.26;101393.28;5011519;28;20054;-68
2022/07/28 03:58:58;;;;;;;9.93;2.22;;;;;;;12.94;52.29;101381.50;5011879;28;20129;-70
2022/07/28 04:01:24;;;;;;;6.53;2.13;;;;;;;12.93;52.53;101393.28;5012224;28;20546;-69
2022/07/28 04:03:51;;;;;;;9.07;2.95;;;;;;;12.93;52.39;101398.66;5003047;28;20052;-68
2022/07/28 04:06:17;;;;;;;11.18;2.40;;;;;;;13.00;52.24;101394.34;5011134;28;20409;-68
2022/07/28 04:08:44;;;;;;;5.75;2.22;;;;;;;13.01;52.29;101394.19;5007578;28;20072;-68
2022/07/28 04:11:10;;;;;;;13.75;3.00;;;;;;;13.01;52.52;101401.44;5010599;28;20173;-68
2022/07/28 04:13:37;;;;;;;11.45;2.50;;;;;;;13.05;52.46;101400.09;5012146;28;20082;-69
2022/07/28 04:16:05;;;;;;;8.48;2.38;;;;;;;13.03;52.15;101405.63;5012067;28;20072;-69
2022/07/28 04:18:32;;;;;;;11.07;2.30;;;;;;;13.07;52.21;101398.06;5012043;28;20444;-69
2022/07/28 04:20:59;;;;;;;15.48;3.53;;;;;;;13.10;52.25;101401.28;5012514;28;20072;-69
2022/07/28 04:23:25;;;;;;;11.68;2.90;;;;;;;13.13;52.23;101394.75;5011227;28;20405;-69
2022/07/28 04:25:52;;;;;;;6.65;2.47;;;;;;;13.17;52.24;101408.75;5011087;28;20517;-69
2022/07/28 04:28:18;;;;;;;7.82;2.60;;;;;;;13.22;52.27;101403.72;5012255;28;20077;-69
2022/07/28 04:30:45;;;;;;;6.53;2.33;;;;;;;13.22;52.39;101399.19;5010354;28;20137;-69
2022/07/28 04:33:12;;;;;;;9.70;2.88;;;;;;;13.25;52.23;101403.38;5012270;28;20056;-69
2022/07/28 04:35:39;;;;;;;11.35;2.63;;;;;;;13.26;52.28;101403.25;5011695;28;20128;-69
2022/07/28 04:38:06;;;;;;;10.02;2.78;;;;;;;13.30;52.46;101404.59;5011551;28;20069;-69
2022/07/28 04:40:33;;;;;;;10.93;2.42;;;;;;;13.32;52.31;101399.91;5011618;28;20080;-69
2022/07/28 04:43:00;;;;;;;13.48;3.35;;;;;;;13.37;52.39;101406.66;5011807;28;20049;-69
2022/07/28 04:45:26;;;;;;;13.75;3.30;;;;;;;13.35;52.66;101410.38;5011549;28;20076;-69
2022/07/28 04:47:53;;;;;;;5.93;2.65;;;;;;;13.40;52.43;101412.56;5010985;28;20121;-68
2022/07/28 04:50:20;;;;;;;10.35;3.10;;;;;;;13.47;52.34;101410.91;5011662;28;20152;-68
2022/07/28 04:52:49;;;;;;;7.47;2.58;;;;;;;13.49;52.23;101411.59;5012366;28;20046;-68
2022/07/28 04:55:17;;;;;;;10.55;3.00;;;;;;;13.56;52.04;101411.75;5011639;28;20129;-68
2022/07/28 04:57:43;;;;;;;10.88;3.15;;;;;;;13.56;51.94;101412.63;5011595;28;20065;-68
2022/07/28 05:00:12;;;;;;;7.30;2.78;;;;;;;13.61;52.03;101414.84;5011678;28;20404;-69
2022/07/28 05:02:43;;;;;;;9.93;2.80;;;;;;;13.70;51.94;101408.47;5012511;28;20402;-69
2022/07/28 05:05:11;;;;;;;17.80;3.15;;;;;;;13.73;51.90;101402.72;5012463;28;20075;-69
2022/07/28 05:07:38;;;;;;;13.93;2.67;;;;;;;13.80;51.71;101401.13;5009239;28;20065;-69
2022/07/28 05:10:07;;;;;;;14.95;2.95;;;;;;;13.89;51.62;101409.22;5012356;28;20061;-69
2022/07/28 05:12:34;;;;;;;11.25;2.83;;;;;;;13.90;51.53;101410.88;5013241;28;20096;-69
2022/07/28 05:15:01;;;;;;;12.35;3.50;;;;;;;13.82;51.80;101406.34;5011763;28;20167;-69
2022/07/28 05:17:27;;;;;;;12.02;3.17;;;;;;;13.97;51.57;101410.06;5012652;28;20136;-69
2022/07/28 05:19:54;;;;;;;9.20;2.78;;;;;;;13.98;51.62;101410.94;5012193;28;20125;-70
2022/07/28 05:22:20;;;;;;;11.10;3.20;;;;;;;14.04;51.50;101408.38;5011120;28;20052;-69
2022/07/28 05:24:47;;;;;;;8.50;3.00;;;;;;;14.12;51.29;101410.28;5011382;28;20070;-68
2022/07/28 05:27:13;;;;;;;6.13;2.47;;;;;;;14.17;51.08;101410.59;5011199;28;20132;-70
2022/07/28 05:29:40;;;;;;;25.13;8.00;;;;;;;14.25;50.70;101405.22;5010078;28;20065;-68
2022/07/28 05:32:13;;;;;;;19.55;3.45;;;;;;;14.17;51.03;101421.38;5010746;28;20050;-68
2022/07/28 05:34:43;;;;;;;15.27;5.32;;;;;;;14.26;50.80;101420.41;5010638;28;20050;-69
2022/07/28 05:37:10;;;;;;;10.93;3.00;;;;;;;14.33;50.42;101419.75;5009812;28;20418;-69
2022/07/28 05:39:37;;;;;;;13.00;2.72;;;;;;;14.46;50.25;101417.34;5011006;28;20521;-69
2022/07/28 05:42:04;;;;;;;10.32;3.08;;;;;;;14.45;50.40;101418.38;5011117;28;20153;-69
2022/07/28 05:44:30;;;;;;;11.30;3.28;;;;;;;14.49;50.24;101417.84;5014125;28;20157;-69
2022/07/28 05:47:03;;;;;;;14.85;3.08;;;;;;;14.53;50.15;101423.75;5013710;28;20172;-69
2022/07/28 05:49:30;;;;;;;7.57;2.70;;;;;;;14.56;50.21;101426.13;5013879;28;20081;-69
2022/07/28 05:51:56;;;;;;;21.48;3.10;;;;;;;14.63;49.98;101429.84;5007335;28;20059;-69
2022/07/28 05:54:23;;;;;;;10.52;2.70;;;;;;;14.68;49.80;101440.16;5007714;28;20550;-69
2022/07/28 05:56:51;;;;;;;17.42;2.55;;;;;;;14.74;49.40;101437.66;5028916;28;20478;-69
2022/07/28 05:59:18;;;;;;;9.55;3.08;;;;;;;14.80;49.30;101435.25;5014056;28;20069;-69
2022/07/28 06:01:44;;;;;;;17.92;3.03;;;;;;;14.83;49.04;101432.22;5013980;28;20116;-69
2022/07/28 06:04:11;;;;;;;24.80;8.15;;;;;;;14.75;49.24;101433.91;5013993;28;20069;-69
2022/07/28 06:06:54;;;;;;;18.58;4.55;;;;;;;14.87;48.59;101434.41;5013882;28;20374;-69
2022/07/28 06:09:21;;;;;;;22.10;3.80;;;;;;;14.95;48.58;101436.28;5014246;28;20129;-69
2022/07/28 06:11:49;;;;;;;14.82;3.38;;;;;;;15.05;48.41;101447.75;5013972;28;20100;-69
2022/07/28 06:14:16;;;;;;;15.27;3.03;;;;;;;14.96;48.51;101437.94;5014030;28;20489;-69
2022/07/28 06:16:43;;;;;;;7.60;2.58;;;;;;;15.15;48.04;101440.25;5014172;28;20049;-69
2022/07/28 06:19:10;;;;;;;16.33;3.53;;;;;;;15.17;47.91;101435.53;5014740;28;20404;-69
2022/07/28 06:21:37;;;;;;;11.20;2.30;;;;;;;15.33;47.56;101442.75;5013350;28;20084;-69
2022/07/28 06:24:04;;;;;;;11.60;2.40;;;;;;;15.43;47.29;101440.69;5013127;28;20509;-69
2022/07/28 06:26:30;;;;;;;9.40;2.53;;;;;;;15.51;46.98;101447.94;5013379;28;20042;-69
2022/07/28 06:28:57;;;;;;;14.05;3.63;;;;;;;15.63;46.83;101445.69;5014264;28;20137;-69
2022/07/28 06:31:23;;;;;;;11.43;2.60;;;;;;;15.75;45.87;101451.59;5013851;28;20046;-69
2022/07/28 06:33:50;;;;;;;14.32;2.78;;;;;;;15.79;45.90;101444.78;5012760;28;20041;-69
2022/07/28 06:36:16;;;;;;;32.22;8.10;;;;;;;16.00;45.61;101444.16;5013841;28;20100;-69
2022/07/28 06:38:43;;;;;;;14.93;3.78;;;;;;;15.99;45.59;101450.63;5013490;28;20129;-69
2022/07/28 06:41:09;;;;;;;13.63;2.45;;;;;;;16.16;45.03;101444.91;5013886;28;20044;-69
2022/07/28 06:43:36;;;;;;;12.15;2.35;;;;;;;16.35;44.40;101448.16;5013880;28;20104;-69
2022/07/28 06:46:05;;;;;;;19.08;4.07;;;;;;;16.54;44.41;101449.53;5016337;28;20129;-69
2022/07/28 06:48:31;;;;;;;17.27;4.50;;;;;;;16.67;44.10;101439.78;5016896;28;20049;-69
2022/07/28 06:50:58;;;;;;;21.17;3.75;;;;;;;16.95;43.41;101441.88;5012925;28;20046;-69
2022/07/28 06:53:26;;;;;;;16.30;3.90;;;;;;;17.11;42.70;101444.44;5011099;28;20467;-69
2022/07/28 06:55:59;;;;;;;10.65;2.83;;;;;;;17.27;42.13;101442.59;5012029;28;20417;-69
2022/07/28 06:58:25;;;;;;;10.80;2.30;;;;;;;17.47;41.67;101446.44;5013058;28;20053;-69
2022/07/28 07:00:52;;;;;;;19.75;2.70;;;;;;;17.54;41.41;101444.63;5012902;28;20069;-69
2022/07/28 07:03:19;;;;;;;13.48;2.50;;;;;;;17.67;41.13;101438.56;5013040;28;20056;-69
2022/07/28 07:05:45;;;;;;;16.05;3.13;;;;;;;17.79;41.10;101442.47;5012414;28;20069;-69
2022/07/28 07:08:16;;;;;;;12.73;3.08;;;;;;;18.06;40.50;101432.75;5012477;28;20552;-69
2022/07/28 07:10:43;;;;;;;8.52;2.30;;;;;;;18.37;39.84;101441.63;5011919;28;20132;-69
2022/07/28 07:13:11;;;;;;;9.93;2.20;;;;;;;18.72;38.98;101440.72;5013351;28;20053;-70
2022/07/28 07:15:39;;;;;;;18.00;2.53;;;;;;;19.00;38.21;101440.75;5011925;28;20045;-70
2022/07/28 07:18:05;;;;;;;9.63;2.60;;;;;;;18.92;37.76;101443.59;5012449;28;20076;-70
2022/07/28 07:20:32;;;;;;;13.82;2.97;;;;;;;18.85;37.65;101445.41;5011819;28;20050;-69
2022/07/28 07:22:58;;;;;;;11.50;2.10;;;;;;;19.06;37.30;101435.53;5012140;28;20080;-69
2022/07/28 07:25:25;;;;;;;10.30;2.38;;;;;;;18.95;38.22;101428.78;5012537;28;20046;-70
2022/07/28 07:27:52;;;;;;;13.93;2.38;;;;;;;19.00;37.79;101434.47;5012453;28;20140;-69
2022/07/28 07:30:18;;;;;;;11.93;3.67;;;;;;;19.58;36.93;101439.59;5012147;28;20046;-69
2022/07/28 07:32:45;;;;;;;17.73;5.65;;;;;;;20.09;35.74;101441.91;5012635;28;20152;-69
2022/07/28 07:35:11;;;;;;;9.25;3.47;;;;;;;20.49;35.26;101437.41;5012438;28;20069;-69
2022/07/28 07:37:38;;;;;;;18.80;6.80;;;;;;;20.79;34.24;101447.88;5011283;28;20125;-69
2022/07/28 07:40:06;;;;;;;9.18;2.20;;;;;;;20.94;34.17;101442.19;5011609;28;20046;-70
2022/07/28 07:42:33;;;;;;;13.77;2.40;;;;;;;20.08;35.40;101440.22;5012199;28;20506;-70
2022/07/28 07:45:00;;;;;;;11.65;2.38;;;;;;;20.29;34.93;101441.94;5013182;28;20470;-69
2022/07/28 07:47:27;;;;;;;13.50;2.42;;;;;;;20.92;33.78;101435.06;5012100;28;20136;-69
2022/07/28 07:49:53;;;;;;;13.07;2.28;;;;;;;20.99;33.99;101437.78;5010873;28;20123;-70
2022/07/28 07:52:20;;;;;;;8.52;2.08;;;;;;;21.45;33.01;101436.00;5011016;28;20045;-70
2022/07/28 07:54:47;;;;;;;15.25;4.00;;;;;;;21.97;32.37;101440.44;5006809;28;20125;-70
2022/07/28 07:57:13;;;;;;;14.40;3.88;;;;;;;22.14;31.83;101445.38;5011997;28;20077;-70
2022/07/28 07:59:40;;;;;;;8.82;3.00;;;;;;;22.08;32.03;101447.09;5012183;28;20065;-70
2022/07/28 08:02:07;;;;;;;22.10;6.82;;;;;;;22.20;32.10;101442.59;5012088;28;20465;-71
2022/07/28 08:04:34;;;;;;;10.70;2.30;;;;;;;22.11;31.35;101435.72;5012152;28;20048;-70
2022/07/28 08:07:04;;;;;;;11.27;2.72;;;;;;;22.20;31.02;101439.88;5011256;28;20490;-70
2022/07/28 08:09:32;;;;;;;9.25;1.95;;;;;;;20.69;33.35;101442.81;5011027;28;20053;-70
2022/07/28 08:11:58;;;;;;;7.43;1.55;;;;;;;20.16;34.52;101442.75;5011930;28;20129;-71
2022/07/28 08:14:25;;;;;;;9.32;1.80;;;;;;;20.97;33.14;101439.88;5011520;28;20077;-70
2022/07/28 08:16:53;;;;;;;6.95;1.98;;;;;;;21.32;32.68;101435.03;5010664;28;20084;-70
2022/07/28 08:19:19;;;;;;;8.75;1.83;;;;;;;21.49;32.03;101443.56;5011891;28;20096;-71
2022/07/28 08:21:47;;;;;;;11.50;2.03;;;;;;;21.78;31.36;101436.72;5011198;28;20500;-70
2022/07/28 08:24:14;;;;;;;11.90;2.75;;;;;;;22.44;30.53;101438.25;5011273;28;20398;-69
2022/07/28 08:26:58;;;;;;;14.57;2.45;;;;;;;22.61;30.12;101432.25;5012171;28;20045;-70
2022/07/28 08:29:25;;;;;;;8.77;1.75;;;;;;;22.99;29.42;101432.13;5011564;28;20129;-70
2022/07/28 08:31:51;;;;;;;11.90;1.92;;;;;;;23.13;29.23;101436.41;5012335;28;20080;-70
2022/07/28 08:34:18;;;;;;;11.57;2.00;;;;;;;23.56;27.96;101438.22;5012472;28;20552;-70
2022/07/28 08:37:00;;;;;;;6.85;2.20;;;;;;;23.17;29.17;101437.63;5011349;28;20096;-70
2022/07/28 08:39:27;;;;;;;7.80;2.00;;;;;;;23.04;29.06;101435.00;5011756;28;20041;-70
2022/07/28 08:42:00;;;;;;;8.45;2.45;;;;;;;22.80;29.69;101436.69;5011700;28;20128;-71
2022/07/28 08:44:32;;;;;;;12.88;2.47;;;;;;;22.92;29.62;101439.56;5011680;28;20046;-70
2022/07/28 08:46:58;;;;;;;;;;;;;;;23.31;28.82;101442.97;5009898;28;20107;-71
2022/07/28 08:49:26;;;;;;;9.18;1.73;;;;;;;22.95;28.75;101447.31;5011705;28;21010;-70
2022/07/28 08:51:54;;;;;;;4.97;1.83;;;;;;;22.84;28.95;101450.75;5011021;28;20108;-71
2022/07/28 08:54:26;;;;;;;8.55;1.88;;;;;;;22.97;28.46;101439.69;5012736;28;20125;-71
2022/07/28 08:56:55;;;;;;;8.02;1.65;;;;;;;22.89;29.29;101448.22;5011788;28;20046;-71
2022/07/28 08:59:23;;;;;;;15.02;1.95;;;;;;;23.35;28.84;101446.91;5007652;28;20133;-71
2022/07/28 09:01:51;;;;;;;9.57;1.60;;;;;;;23.68;28.13;101446.53;5010602;28;20050;-70
2022/07/28 09:04:24;;;;;;;7.40;1.88;;;;;;;23.51;28.51;101446.31;5010374;28;20049;-71
2022/07/28 09:06:51;;;;;;;7.90;2.10;;;;;;;24.13;27.35;101437.94;5010301;28;20128;-70
2022/07/28 09:09:20;;;;;;;9.20;2.13;;;;;;;24.80;26.54;101443.22;5012601;28;20078;-70
2022/07/28 09:11:46;;;;;;;9.90;1.60;;;;;;;24.70;26.88;101437.47;5011649;28;20089;-70
2022/07/28 09:14:13;;;;;;;11.57;2.38;;;;;;;24.36;26.91;101442.63;5011114;28;20132;-71
2022/07/28 09:16:40;;;;;;;7.15;2.00;;;;;;;24.50;26.36;101443.28;5012471;28;20069;-71
2022/07/28 09:19:06;;;;;;;12.25;2.10;;;;;;;23.38;28.07;101432.78;5015307;28;20077;-71
2022/07/28 09:21:33;;;;;;;11.10;1.70;;;;;;;23.80;27.40;101438.38;5015444;28;20080;-71
2022/07/28 09:24:00;;;;;;;5.15;1.60;;;;;;;24.09;27.08;101436.69;5013900;28;20133;-71
2022/07/28 09:26:26;;;;;;;6.05;1.60;;;;;;;24.54;26.05;101436.25;5014955;28;20073;-71
2022/07/28 09:28:57;;;;;;;8.73;1.50;;;;;;;24.66;26.10;101442.59;5015830;28;20124;-69
2022/07/28 09:31:26;;;;;;;13.88;2.08;;;;;;;24.26;26.23;101434.13;5013923;28;20137;-69
2022/07/28 09:34:04;;;;;;;6.75;1.38;;;;;;;23.88;26.77;101436.16;5014451;28;20088;-69
2022/07/28 09:36:40;;;;;;;6.90;1.55;;;;;;;24.19;26.68;101435.06;5014175;28;20560;-69
2022/07/28 09:39:07;;;;;;;7.53;1.55;;;;;;;24.43;26.16;101433.25;5014343;28;20049;-71
2022/07/28 09:41:47;;;;;;;11.40;2.97;;;;;;;24.23;26.79;101432.72;5010554;28;20134;-70
2022/07/28 09:44:21;;;;;;;10.80;2.50;;;;;;;24.64;26.15;101429.09;5014220;28;20049;-70
2022/07/28 09:46:48;;;;;;;9.45;1.90;;;;;;;25.12;25.07;101428.06;5012455;28;20124;-68
2022/07/28 09:49:15;;;;;;;5.75;1.73;;;;;;;24.36;26.30;101434.41;5015877;28;20134;-70
2022/07/28 09:51:58;;;;;;;10.13;1.75;;;;;;;24.20;26.67;101434.03;5014667;28;20077;-70
2022/07/28 09:54:24;;;;;;;6.78;1.83;;;;;;;24.37;26.42;101430.56;5013135;28;20387;-69
2022/07/28 09:56:51;;;;;;;5.72;1.80;;;;;;;23.12;27.91;101426.53;5015138;28;20056;-71
2022/07/28 09:59:18;;;;;;;7.78;1.40;;;;;;;24.24;26.10;101422.59;5014945;28;20461;-70
2022/07/28 10:02:00;;;;;;;7.35;1.60;;;;;;;24.57;26.17;101428.38;5014970;28;20053;-70
2022/07/28 10:04:28;;;;;;;14.40;4.07;;;;;;;24.31;26.71;101426.88;5014043;28;20096;-71
2022/07/28 10:07:18;;;;;;;7.25;1.98;;;;;;;24.11;26.81;101416.22;5014536;28;20442;-71
2022/07/28 10:10:00;;;;;;;6.93;1.88;;;;;;;23.79;26.69;101420.28;5013966;28;20124;-71
2022/07/28 10:12:29;;;;;;;;;;;;;;;23.90;26.65;101422.22;5005964;28;20144;-70
2022/07/28 10:14:58;;;;;;;9.10;1.70;;;;;;;23.88;27.48;101416.13;5013189;28;20004;-70
2022/07/28 10:17:25;;;;;;;11.75;2.00;;;;;;;24.83;26.21;101420.78;5013505;28;20085;-70
2022/07/28 10:19:53;;;;;;;9.50;3.40;;;;;;;25.31;25.76;101411.44;5013372;28;20065;-71
2022/07/28 10:22:23;;;;;;;7.70;1.58;;;;;;;25.38;24.93;101412.16;5014209;28;20054;-71
2022/07/28 10:24:52;;;;;;;5.45;1.50;;;;;;;25.60;24.87;101409.59;5013394;28;20046;-70
2022/07/28 10:27:23;;;;;;;9.48;2.03;;;;;;;25.12;25.76;101414.34;5013319;28;20148;-70
2022/07/28 10:29:55;;;;;;;20.23;4.57;;;;;;;24.60;26.38;101407.88;5012710;28;20065;-71
2022/07/28 10:32:23;;;;;;;12.73;2.03;;;;;;;23.77;26.54;101411.44;5013889;28;20187;-71
2022/07/28 10:34:53;;;;;;;7.90;2.72;;;;;;;23.58;27.24;101413.38;5013995;28;20129;-70
2022/07/28 10:37:22;;;;;;;6.68;1.50;;;;;;;24.49;26.67;101411.44;5014085;28;20045;-71
2022/07/28 10:40:00;;;;;;;47.50;25.58;;;;;;;24.60;25.47;101405.97;5013072;28;20104;-70
2022/07/28 10:42:34;;;;;;;9.23;3.40;;;;;;;23.87;26.34;101411.72;5013166;28;20433;-71
2022/07/28 10:45:03;;;;;;;7.97;1.75;;;;;;;23.69;26.45;101404.38;5012670;28;20073;-70
2022/07/28 10:47:29;;;;;;;9.80;2.00;;;;;;;23.11;27.89;101396.63;5013073;28;20132;-70
2022/07/28 10:50:03;;;;;;;6.50;2.20;;;;;;;23.42;27.42;101407.44;5013528;28;20808;-70
2022/07/28 10:52:32;;;;;;;8.40;2.10;;;;;;;23.27;27.49;101404.25;5012910;28;20116;-71
2022/07/28 10:55:26;;;;;;;7.80;1.67;;;;;;;22.93;28.38;101401.00;5012789;28;20112;-71
2022/07/28 10:58:15;;;;;;;7.47;1.67;;;;;;;22.54;28.91;101403.06;5006598;28;20505;-71
2022/07/28 11:00:46;;;;;;;10.45;1.92;;;;;;;22.68;28.48;101406.53;5014466;28;20046;-71
2022/07/28 11:03:38;;;;;;;7.80;2.08;;;;;;;22.90;28.72;101398.72;5012972;28;20498;-71
2022/07/28 11:06:24;;;;;;;7.45;1.83;;;;;;;23.20;28.05;101403.50;5013527;28;20068;-72
2022/07/28 11:08:56;;;;;;;5.07;1.48;;;;;;;22.83;27.31;101405.31;5013406;28;20037;-71
2022/07/28 11:11:42;;;;;;;4.57;1.77;;;;;;;22.66;27.23;101400.44;5012976;28;20070;-70
2022/07/28 11:14:24;;;;;;;5.97;1.45;;;;;;;23.08;27.05;101399.81;5013235;28;20070;-70
2022/07/28 11:17:00;;;;;;;7.28;1.42;;;;;;;22.92;27.81;101393.03;5012985;28;20046;-70
2022/07/28 11:19:42;;;;;;;13.48;2.33;;;;;;;21.84;29.58;101403.13;5011682;28;20046;-70
2022/07/28 11:22:29;;;;;;;8.25;1.60;;;;;;;21.85;29.02;101393.84;5012458;28;20060;-70
2022/07/28 11:25:01;;;;;;;10.10;1.90;;;;;;;21.94;28.90;101394.41;5018059;28;20049;-70
2022/07/28 11:27:50;;;;;;;5.82;1.70;;;;;;;22.12;28.69;101392.84;5011759;28;20050;-70
2022/07/28 11:30:24;;;;;;;8.40;1.50;;;;;;;22.97;27.85;101382.25;5012001;28;20058;-70
2022/07/28 11:32:52;;;;;;;7.05;1.50;;;;;;;23.69;26.19;101388.75;5011650;28;20042;-72
2022/07/28 11:35:26;;;;;;;7.05;1.63;;;;;;;23.62;26.19;101390.75;5012536;28;20050;-70